Time;durP1;ratioP1;P1;durP2;ratioP2;P2;SDS_P1;SDS_P2;PMS_P1;PMS_P2;Temp;Humidity;BMP_temperature;BMP_pressure;BME280_temperature;BME280_humidity;BME280_pressure;Samples;Min_cycle;Max_cycle;Signal;HPM_P1;HPM_P2
2022/12/19 00:01:03;;;;;;;40.75;21.02;;;;;;;-1.89;100.00;101436.47;5059448;28;20241;-75
2022/12/19 00:03:30;;;;;;;40.63;22.17;;;;;;;-1.90;100.00;101443.50;5060513;28;20220;-74
2022/12/19 00:05:56;;;;;;;46.92;22.75;;;;;;;-1.86;100.00;101439.16;5059512;28;20699;-73
2022/12/19 00:08:23;;;;;;;45.58;23.90;;;;;;;-1.85;100.00;101440.97;5057878;28;20290;-74
2022/12/19 00:10:55;;;;;;;40.65;20.77;;;;;;;-1.82;100.00;101430.47;5058854;28;20200;-73
2022/12/19 00:13:22;;;;;;;41.63;21.48;;;;;;;-1.79;100.00;101434.91;5057779;28;20216;-74
2022/12/19 00:15:50;;;;;;;42.40;22.20;;;;;;;-1.80;100.00;101439.31;5059229;28;20194;-74
2022/12/19 00:18:16;;;;;;;44.95;22.60;;;;;;;-1.71;100.00;101435.97;5058126;28;20207;-75
2022/12/19 00:20:43;;;;;;;47.40;22.45;;;;;;;-1.71;100.00;101435.97;5059101;28;20290;-74
2022/12/19 00:23:09;;;;;;;44.03;22.10;;;;;;;-1.69;100.00;101424.59;5059081;28;20227;-73
2022/12/19 00:25:36;;;;;;;42.88;22.38;;;;;;;-1.68;100.00;101423.72;5059395;28;20242;-74
2022/12/19 00:28:04;;;;;;;41.50;22.02;;;;;;;-1.65;100.00;101417.63;5059155;28;20211;-73
2022/12/19 00:30:30;;;;;;;42.58;22.45;;;;;;;-1.66;100.00;101415.81;5058755;28;20290;-75
2022/12/19 00:32:58;;;;;;;41.58;21.55;;;;;;;-1.64;100.00;101411.47;5059883;28;20219;-75
2022/12/19 00:35:25;;;;;;;38.10;21.80;;;;;;;-1.76;100.00;101413.88;5058646;28;20226;-74
2022/12/19 00:37:51;;;;;;;42.33;21.42;;;;;;;-1.74;100.00;101418.31;5058725;28;20207;-73
2022/12/19 00:40:18;;;;;;;37.95;21.02;;;;;;;-1.66;100.00;101417.59;5058823;28;20688;-74
2022/12/19 00:42:44;;;;;;;42.97;22.05;;;;;;;-1.79;100.00;101419.94;5059477;28;20218;-74
2022/12/19 00:45:11;;;;;;;42.85;21.23;;;;;;;-1.74;100.00;101412.13;5059661;28;20234;-73
2022/12/19 00:47:38;;;;;;;42.70;22.83;;;;;;;-1.70;100.00;101403.41;5058944;28;20207;-75
2022/12/19 00:50:06;;;;;;;41.90;21.58;;;;;;;-1.71;100.00;101404.28;5065387;28;20192;-72
2022/12/19 00:52:33;;;;;;;40.42;21.55;;;;;;;-1.49;100.00;101417.06;5064097;28;20237;-75
2022/12/19 00:55:00;;;;;;;35.30;19.60;;;;;;;-1.73;100.00;101413.91;5062938;28;20198;-74
2022/12/19 00:57:26;;;;;;;39.75;21.55;;;;;;;-1.75;100.00;101413.88;5059054;28;20738;-72
2022/12/19 00:59:53;;;;;;;43.30;21.48;;;;;;;-1.81;100.00;101420.78;5058505;28;20214;-73
2022/12/19 01:02:19;;;;;;;37.47;19.10;;;;;;;-1.76;100.00;101419.16;5058607;28;20256;-73
2022/12/19 01:04:46;;;;;;;43.22;21.75;;;;;;;-1.76;100.00;101409.47;5058451;28;20585;-75
2022/12/19 01:07:14;;;;;;;46.60;23.00;;;;;;;-1.66;100.00;101414.94;5057358;28;20213;-73
2022/12/19 01:09:41;;;;;;;44.15;22.35;;;;;;;-1.65;100.00;101404.41;5057330;28;20212;-75
2022/12/19 01:14:48;;;;;;;43.08;21.35;;;;;;;-1.58;100.00;101410.69;4997630;28;20206;-74
2022/12/19 01:17:15;;;;;;;47.75;23.30;;;;;;;-1.51;100.00;101418.78;4997530;28;20787;-74
2022/12/19 01:19:41;;;;;;;40.85;20.17;;;;;;;-1.56;100.00;101415.16;4997625;28;20195;-73
2022/12/19 01:22:08;;;;;;;43.95;21.42;;;;;;;-1.52;100.00;101422.28;4999013;28;20230;-73
2022/12/19 01:24:35;;;;;;;40.60;20.88;;;;;;;-1.45;100.00;101414.47;4999188;28;20205;-74
2022/12/19 01:27:02;;;;;;;45.42;22.45;;;;;;;-1.45;100.00;101423.28;4997950;28;20272;-74
2022/12/19 01:29:28;;;;;;;42.58;20.88;;;;;;;-1.52;100.00;101411.69;4995972;28;20202;-75
2022/12/19 01:31:55;;;;;;;40.33;22.23;;;;;;;-1.47;100.00;101411.78;4997118;28;20217;-74
2022/12/19 01:34:21;;;;;;;39.40;20.77;;;;;;;-1.43;100.00;101418.94;4996068;28;20315;-74
2022/12/19 01:36:48;;;;;;;45.00;21.85;;;;;;;-1.41;100.00;101408.41;4996665;28;20192;-73
2022/12/19 01:39:14;;;;;;;43.55;22.73;;;;;;;-1.40;100.00;101402.25;4996024;28;20326;-74
2022/12/19 01:41:42;;;;;;;42.58;21.75;;;;;;;-1.40;100.00;101403.16;4995648;28;20204;-74
2022/12/19 01:44:09;;;;;;;40.25;20.45;;;;;;;-1.38;100.00;101395.22;4996126;28;20199;-74
2022/12/19 01:46:38;;;;;;;41.15;21.90;;;;;;;-1.41;100.00;101390.78;4995158;28;20218;-73
2022/12/19 01:49:09;;;;;;;44.22;21.23;;;;;;;-1.40;100.00;101392.59;4994787;28;20298;-73
2022/12/19 01:51:41;;;;;;;39.40;21.52;;;;;;;-1.39;100.00;101380.25;5013226;28;20207;-74
2022/12/19 01:54:11;;;;;;;40.83;20.38;;;;;;;-1.34;100.00;101387.38;5057078;28;20208;-73
2022/12/19 01:56:45;;;;;;;42.92;22.40;;;;;;;-1.31;100.00;101397.16;5056298;28;20190;-75
2022/12/19 01:59:16;;;;;;;41.20;21.60;;;;;;;-1.33;100.00;101388.31;5055511;28;20191;-74
2022/12/19 02:01:43;;;;;;;44.25;22.73;;;;;;;-1.32;100.00;101384.78;5057003;28;20200;-74
2022/12/19 02:04:11;;;;;;;43.17;22.95;;;;;;;-1.29;100.00;101376.91;5057301;28;20571;-73
2022/12/19 02:06:41;;;;;;;40.20;21.98;;;;;;;-1.23;100.00;101368.22;5057765;28;20232;-74
2022/12/19 02:09:07;;;;;;;46.17;22.33;;;;;;;-1.20;100.00;101373.53;5057184;28;20661;-73
2022/12/19 02:11:34;;;;;;;43.00;21.65;;;;;;;-1.20;100.00;101373.53;5057075;28;20211;-73
2022/12/19 02:14:02;;;;;;;39.78;21.58;;;;;;;-1.23;100.00;101378.78;5061917;28;20214;-73
2022/12/19 02:16:38;;;;;;;45.13;22.90;;;;;;;-1.18;100.00;101374.47;5059942;28;20283;-75
2022/12/19 02:19:25;;;;;;;43.15;21.60;;;;;;;-1.22;100.00;101367.34;5058622;28;20189;-74
2022/12/19 02:21:58;;;;;;;46.65;23.23;;;;;;;-1.23;100.00;101363.81;5059584;28;20193;-74
2022/12/19 02:25:00;;;;;;;43.63;23.48;;;;;;;-1.28;100.00;101357.56;5059626;28;20188;-73
2022/12/19 02:27:56;;;;;;;39.67;21.60;;;;;;;-1.27;100.00;101365.53;4987372;28;20293;-73
2022/12/19 02:30:53;;;;;;;42.38;23.13;;;;;;;-1.26;100.00;101355.84;4877484;29;20241;-72
2022/12/19 02:33:31;;;;;;;38.40;21.10;;;;;;;-1.23;100.00;101352.34;4879726;29;20230;-71
2022/12/19 02:36:05;;;;;;;40.42;21.60;;;;;;;-1.24;100.00;101351.47;4881998;29;20278;-72
2022/12/19 02:38:39;;;;;;;43.42;22.60;;;;;;;-1.28;100.00;101345.22;4882008;29;20195;-71
2022/12/19 02:41:10;;;;;;;47.97;22.35;;;;;;;-1.23;100.00;101336.50;4882729;29;20270;-71
2022/12/19 02:43:42;;;;;;;53.63;23.85;;;;;;;-1.22;100.00;101348.84;4871783;29;20229;-74
2022/12/19 02:46:12;;;;;;;40.03;22.40;;;;;;;-1.19;100.00;101360.38;4869188;29;20226;-74
2022/12/19 02:48:39;;;;;;;39.97;18.73;;;;;;;-1.27;100.00;101362.88;4871968;29;20276;-74
2022/12/19 02:51:06;;;;;;;42.17;22.63;;;;;;;-1.29;100.00;101355.75;4872667;29;20238;-73
2022/12/19 02:53:33;;;;;;;47.70;22.98;;;;;;;-1.28;100.00;101358.44;4872655;29;20244;-72
2022/12/19 02:56:23;;;;;;;37.70;21.15;;;;;;;-1.27;100.00;101352.31;4863780;29;20199;-73
2022/12/19 02:59:12;;;;;;;42.47;22.60;;;;;;;-1.26;100.00;101321.47;4864221;29;20219;-75
2022/12/19 03:01:47;;;;;;;41.92;22.58;;;;;;;-1.30;100.00;101309.06;4864753;29;20212;-74
2022/12/19 03:04:21;;;;;;;40.55;22.00;;;;;;;-1.23;100.00;101307.41;4920071;29;20308;-73
2022/12/19 03:06:52;;;;;;;46.92;23.60;;;;;;;-1.23;100.00;101326.81;4942622;28;20249;-74
2022/12/19 03:09:28;;;;;;;49.20;25.73;;;;;;;-1.33;100.00;101319.59;5041693;28;20215;-74
2022/12/19 03:12:02;;;;;;;42.17;22.88;;;;;;;-1.34;100.00;101309.88;5040764;28;20735;-74
2022/12/19 03:14:31;;;;;;;44.33;22.35;;;;;;;-1.29;100.00;101310.81;5037618;28;20193;-74
2022/12/19 03:17:03;;;;;;;45.10;22.05;;;;;;;-1.32;100.00;101322.25;5048048;28;20646;-75
2022/12/19 03:19:30;;;;;;;41.65;22.73;;;;;;;-1.30;100.00;101323.16;5055289;28;20187;-72
2022/12/19 03:21:56;;;;;;;48.78;21.45;;;;;;;-1.23;100.00;101333.84;5056650;28;20221;-74
2022/12/19 03:24:23;;;;;;;43.50;22.98;;;;;;;-1.21;100.00;101325.06;5056541;28;20224;-73
2022/12/19 03:26:55;;;;;;;43.40;24.08;;;;;;;-1.20;100.00;101326.84;5055315;28;20224;-75
2022/12/19 03:29:27;;;;;;;42.40;22.80;;;;;;;-1.17;100.00;101324.28;5057122;28;20533;-72
2022/12/19 03:31:55;;;;;;;40.20;22.27;;;;;;;-1.17;100.00;101318.09;5056487;28;20208;-73
2022/12/19 03:34:28;;;;;;;43.47;23.52;;;;;;;-1.15;100.00;101314.63;5055422;28;20212;-74
2022/12/19 03:36:58;;;;;;;45.78;23.02;;;;;;;-1.11;100.00;101320.84;5055865;28;20685;-73
2022/12/19 03:39:26;;;;;;;50.30;23.08;;;;;;;-1.12;100.00;101312.03;5055315;28;20205;-73
2022/12/19 03:44:42;;;;;;;42.13;21.67;;;;;;;-1.14;100.00;101315.50;5056010;28;20295;-73
2022/12/19 03:47:14;;;;;;;47.67;23.55;;;;;;;-1.09;100.00;101322.63;5055770;28;20217;-73
2022/12/19 03:49:42;;;;;;;44.17;21.98;;;;;;;-1.06;100.00;101317.41;5059159;28;20208;-73
2022/12/19 03:52:18;;;;;;;44.67;24.70;;;;;;;-1.07;100.00;101314.72;5058722;28;20236;-74
2022/12/19 03:54:50;;;;;;;49.13;23.67;;;;;;;-1.05;100.00;101316.53;5058493;28;20623;-74
2022/12/19 03:57:24;;;;;;;43.38;22.48;;;;;;;-1.05;100.00;101315.66;5059056;28;20189;-74
2022/12/19 03:59:56;;;;;;;44.58;23.42;;;;;;;-1.02;100.00;101326.28;5058421;28;20196;-73
2022/12/19 04:02:24;;;;;;;43.83;23.70;;;;;;;-1.02;100.00;101325.38;5060449;28;20225;-73
2022/12/19 04:04:55;;;;;;;44.88;25.23;;;;;;;-1.06;100.00;101325.34;5057448;28;20219;-72
2022/12/19 04:07:23;;;;;;;40.92;22.13;;;;;;;-1.02;100.00;101325.38;5056342;28;20209;-74
2022/12/19 04:09:51;;;;;;;39.28;22.02;;;;;;;-0.97;100.00;101318.41;5054704;28;20297;-72
2022/12/19 04:12:21;;;;;;;43.03;22.80;;;;;;;-0.94;100.00;101306.16;5056658;28;20217;-73
2022/12/19 04:14:49;;;;;;;37.95;21.52;;;;;;;-0.96;100.00;101307.88;5060279;28;20200;-72
2022/12/19 04:17:22;;;;;;;50.15;23.67;;;;;;;-0.97;100.00;101302.53;5059346;28;20217;-72
2022/12/19 04:19:55;;;;;;;47.60;23.65;;;;;;;-0.90;100.00;101296.50;5060128;28;20196;-72
2022/12/19 04:22:27;;;;;;;44.83;23.55;;;;;;;-0.92;100.00;101299.13;5059529;28;20221;-72
2022/12/19 04:24:55;;;;;;;44.53;22.38;;;;;;;-0.92;100.00;101316.75;5058509;28;20553;-73
2022/12/19 04:27:22;;;;;;;52.20;24.33;;;;;;;-1.07;100.00;101307.69;5059580;28;20221;-74
2022/12/19 04:29:54;;;;;;;47.30;24.63;;;;;;;-1.06;100.00;101298.91;5060167;28;20264;-73
2022/12/19 04:32:23;;;;;;;48.22;23.38;;;;;;;-1.03;100.00;101303.34;5060228;28;20217;-74
2022/12/19 04:34:49;;;;;;;40.67;23.75;;;;;;;-0.97;100.00;101302.53;5058535;28;20708;-74
2022/12/19 04:37:17;;;;;;;50.13;25.35;;;;;;;-0.94;100.00;101289.41;5058921;28;20271;-74
2022/12/19 04:39:44;;;;;;;46.20;25.02;;;;;;;-0.91;100.00;101290.31;5058064;28;20205;-74
2022/12/19 04:42:11;;;;;;;51.25;25.20;;;;;;;-0.94;100.00;101284.09;5058102;28;20217;-74
2022/12/19 04:44:38;;;;;;;49.25;24.77;;;;;;;-0.95;100.00;101283.22;5058020;28;20309;-74
2022/12/19 04:47:04;;;;;;;49.85;24.95;;;;;;;-0.98;100.00;101282.28;5057723;28;20263;-74
2022/12/19 04:49:31;;;;;;;43.45;25.33;;;;;;;-0.91;100.00;101284.13;5058035;28;20552;-73
2022/12/19 04:51:57;;;;;;;45.80;24.13;;;;;;;-0.94;100.00;101277.06;5058196;28;20326;-74
2022/12/19 04:54:25;;;;;;;53.28;23.70;;;;;;;-0.93;100.00;101270.00;5073232;22;20233;-72
2022/12/19 04:56:52;;;;;;;49.75;25.00;;;;;;;-0.93;100.00;101273.53;5058094;28;20231;-71
2022/12/19 04:59:19;;;;;;;46.63;24.48;;;;;;;-0.92;100.00;101269.16;5056287;28;20208;-72
2022/12/19 05:01:45;;;;;;;44.97;24.45;;;;;;;-0.88;100.00;101278.91;5056658;28;20304;-71
2022/12/19 05:04:12;;;;;;;48.75;26.77;;;;;;;-0.85;100.00;101281.59;5057317;28;20209;-73
2022/12/19 05:06:39;;;;;;;51.92;24.88;;;;;;;-0.83;100.00;101271.06;5045765;28;20226;-72
2022/12/19 05:09:05;;;;;;;49.00;25.10;;;;;;;-0.78;100.00;101274.66;5046910;28;20238;-73
2022/12/19 05:11:33;;;;;;;41.83;21.90;;;;;;;-0.73;100.00;101272.94;5054551;28;20203;-72
2022/12/19 05:14:00;;;;;;;50.70;24.60;;;;;;;-0.72;100.00;101286.22;5048107;28;20232;-73
2022/12/19 05:16:26;;;;;;;52.35;24.10;;;;;;;-0.69;100.00;101293.31;5037855;28;20202;-72
2022/12/19 05:18:53;;;;;;;48.22;25.35;;;;;;;-0.66;100.00;101285.41;5058074;28;20193;-73
2022/12/19 05:21:20;;;;;;;49.03;26.83;;;;;;;-0.66;100.00;101283.66;5060902;28;20196;-73
2022/12/19 05:23:48;;;;;;;45.15;25.05;;;;;;;-0.67;100.00;101287.16;5060139;28;20221;-74
2022/12/19 05:26:15;;;;;;;47.22;24.58;;;;;;;-0.73;100.00;101280.88;5069244;28;20212;-72
2022/12/19 05:28:43;;;;;;;46.75;24.17;;;;;;;-0.72;100.00;101277.41;5072376;28;20204;-72
2022/12/19 05:31:12;;;;;;;49.45;24.95;;;;;;;-0.69;100.00;101272.13;5073448;28;20280;-74
2022/12/19 05:33:39;;;;;;;48.08;23.13;;;;;;;-0.66;100.00;101269.53;5077509;28;20287;-73
2022/12/19 05:36:08;;;;;;;46.10;25.23;;;;;;;-0.64;100.00;101273.09;5076349;28;20219;-72
2022/12/19 05:38:35;;;;;;;49.13;25.75;;;;;;;-0.65;100.00;101280.13;5076523;28;20189;-74
2022/12/19 05:41:06;;;;;;;55.38;26.90;;;;;;;-0.62;100.00;101279.28;5077879;28;20212;-73
2022/12/19 05:43:33;;;;;;;53.35;27.95;;;;;;;-0.58;100.00;101280.25;5078621;28;20272;-72
2022/12/19 05:46:01;;;;;;;59.05;30.20;;;;;;;-0.57;100.00;101274.94;5078148;28;20194;-72
2022/12/19 05:48:27;;;;;;;52.38;26.42;;;;;;;-0.53;100.00;101274.13;5075444;28;20223;-72
2022/12/19 05:50:55;;;;;;;48.00;25.70;;;;;;;-0.52;100.00;101273.28;5072909;28;20615;-71
2022/12/19 05:53:21;;;;;;;51.70;23.15;;;;;;;-0.52;100.00;101275.91;5061367;28;20745;-71
2022/12/19 05:55:48;;;;;;;45.78;23.27;;;;;;;-0.56;100.00;101281.16;5075973;28;20237;-71
2022/12/19 05:58:14;;;;;;;51.67;25.88;;;;;;;-0.53;100.00;101270.59;5066567;28;20242;-73
2022/12/19 06:00:41;;;;;;;46.55;25.10;;;;;;;-0.55;100.00;101272.31;5053251;28;20232;-73
2022/12/19 06:03:09;;;;;;;53.50;26.52;;;;;;;-0.55;100.00;101278.50;5055319;28;20285;-72
2022/12/19 06:05:37;;;;;;;44.03;24.20;;;;;;;-0.57;100.00;101263.47;5056459;28;20245;-72
2022/12/19 06:08:05;;;;;;;47.88;26.20;;;;;;;-0.51;100.00;101263.56;5053951;28;20226;-72
2022/12/19 06:10:31;;;;;;;48.67;24.60;;;;;;;-0.56;100.00;101271.44;5045764;28;20265;-75
2022/12/19 06:12:58;;;;;;;46.22;23.63;;;;;;;-0.55;100.00;101275.84;5040080;28;20283;-74
2022/12/19 06:15:24;;;;;;;49.17;25.20;;;;;;;-0.51;100.00;101277.69;5039057;28;20301;-75
2022/12/19 06:17:53;;;;;;;52.42;25.20;;;;;;;-0.49;100.00;101273.31;5038016;28;20198;-76
2022/12/19 06:20:21;;;;;;;50.55;24.30;;;;;;;-0.46;100.00;101278.63;5038131;28;20208;-74
2022/12/19 06:22:47;;;;;;;48.92;25.23;;;;;;;-0.43;100.00;101280.41;5036496;28;20226;-75
2022/12/19 06:25:14;;;;;;;54.25;29.35;;;;;;;-0.44;100.00;101265.44;5055631;28;20289;-76
2022/12/19 06:27:41;;;;;;;54.97;28.10;;;;;;;-0.43;100.00;101277.78;5058032;28;20237;-73
2022/12/19 06:30:08;;;;;;;53.10;27.00;;;;;;;-0.40;100.00;101272.53;5058547;28;20225;-75
2022/12/19 06:32:34;;;;;;;51.20;26.67;;;;;;;-0.36;100.00;101274.38;5056820;28;20197;-74
2022/12/19 06:35:01;;;;;;;51.83;27.15;;;;;;;-0.36;100.00;101279.66;5055929;28;20213;-75
2022/12/19 06:37:29;;;;;;;53.85;24.33;;;;;;;-0.32;100.00;101280.56;5056389;28;20232;-72
2022/12/19 06:39:56;;;;;;;46.45;23.45;;;;;;;-0.31;100.00;101290.31;5057013;28;20342;-76
2022/12/19 06:42:24;;;;;;;56.70;31.25;;;;;;;-0.31;100.00;101293.84;5057305;28;20280;-75
2022/12/19 06:44:52;;;;;;;59.38;28.55;;;;;;;-0.31;100.00;101290.31;5057903;28;20803;-74
2022/12/19 06:47:20;;;;;;;46.78;25.90;;;;;;;-0.30;100.00;101285.00;5058239;28;20212;-73
2022/12/19 06:49:47;;;;;;;53.35;27.13;;;;;;;-0.31;100.00;101290.31;5058731;28;20201;-74
2022/12/19 06:52:14;;;;;;;53.15;25.77;;;;;;;-0.38;100.00;101273.47;5069882;28;20201;-73
2022/12/19 06:54:42;;;;;;;54.95;26.55;;;;;;;-0.35;100.00;101280.53;5070165;28;20233;-73
2022/12/19 06:57:08;;;;;;;49.70;25.55;;;;;;;-0.33;100.00;101282.34;5068725;28;20201;-74
2022/12/19 06:59:35;;;;;;;46.80;24.27;;;;;;;-0.31;100.00;101274.44;5059703;28;20204;-72
2022/12/19 07:02:13;;;;;;;52.30;25.65;;;;;;;-0.35;100.00;101273.50;5057932;28;20229;-73
2022/12/19 07:04:43;;;;;;;50.13;24.50;;;;;;;-0.32;100.00;101276.16;5056132;28;20725;-74
2022/12/19 07:07:10;;;;;;;49.75;24.88;;;;;;;-0.34;100.00;101272.63;5060325;28;20281;-73
2022/12/19 07:09:37;;;;;;;53.90;26.30;;;;;;;-0.31;100.00;101270.03;5062055;28;20236;-75
2022/12/19 07:12:09;;;;;;;49.67;25.50;;;;;;;-0.27;100.00;101258.59;5062453;28;20205;-73
2022/12/19 07:14:36;;;;;;;52.88;27.35;;;;;;;-0.27;100.00;101250.66;5060655;28;20231;-76
2022/12/19 07:17:05;;;;;;;53.08;26.27;;;;;;;-0.26;100.00;101255.06;5062940;28;20207;-77
2022/12/19 07:19:32;;;;;;;66.88;26.73;;;;;;;-0.25;100.00;101248.00;5063790;28;20189;-76
2022/12/19 07:22:00;;;;;;;52.95;25.08;;;;;;;-0.24;100.00;101263.94;5054020;28;20205;-74
2022/12/19 07:24:27;;;;;;;49.58;26.90;;;;;;;-0.22;100.00;101270.13;5074391;28;20217;-73
2022/12/19 07:26:53;;;;;;;56.60;26.90;;;;;;;-0.18;100.00;101272.81;5074796;28;20233;-73
2022/12/19 07:29:21;;;;;;;54.83;25.50;;;;;;;-0.17;100.00;101267.53;5064865;28;20290;-75
2022/12/19 07:31:48;;;;;;;47.60;24.67;;;;;;;-0.17;100.00;101267.53;5063243;28;20224;-74
2022/12/19 07:34:15;;;;;;;54.00;26.95;;;;;;;-0.13;100.00;101272.00;5063812;28;20284;-74
2022/12/19 07:36:41;;;;;;;52.30;25.52;;;;;;;-0.21;100.00;101261.31;5064374;28;20224;-74
2022/12/19 07:39:08;;;;;;;53.40;26.38;;;;;;;-0.16;100.00;101268.41;5063891;28;20197;-74
2022/12/19 07:41:36;;;;;;;49.72;27.17;;;;;;;-0.10;100.00;101279.09;5065527;28;20284;-73
2022/12/19 07:44:02;;;;;;;48.83;24.90;;;;;;;-0.10;100.00;101274.69;5066401;28;20253;-73
2022/12/19 07:46:31;;;;;;;57.42;26.65;;;;;;;-0.08;100.00;101267.66;5069058;28;20256;-74
2022/12/19 07:48:57;;;;;;;52.22;25.58;;;;;;;-0.06;100.00;101281.81;5068374;28;20315;-75
2022/12/19 07:51:24;;;;;;;48.97;27.25;;;;;;;-0.03;100.00;101281.81;5068019;28;20200;-75
2022/12/19 07:53:50;;;;;;;57.60;25.85;;;;;;;-0.06;100.00;101268.56;5067659;28;20263;-74
2022/12/19 07:56:17;;;;;;;49.78;25.40;;;;;;;0.00;100.00;101278.34;5063378;28;20228;-74
2022/12/19 07:58:44;;;;;;;47.75;24.88;;;;;;;0.03;100.00;101280.16;5060694;28;20577;-74
2022/12/19 08:01:11;;;;;;;54.30;24.40;;;;;;;0.08;100.00;101281.09;5061344;28;20240;-73
2022/12/19 08:03:39;;;;;;;49.97;25.15;;;;;;;0.08;100.00;101279.31;5062419;28;20274;-73
2022/12/19 08:06:07;;;;;;;55.55;25.38;;;;;;;0.13;100.00;101271.41;5065389;28;20682;-76
2022/12/19 08:08:34;;;;;;;50.35;25.52;;;;;;;0.13;100.00;101272.31;5065040;28;20216;-74
2022/12/19 08:11:06;;;;;;;50.80;26.83;;;;;;;0.13;100.00;101267.00;5065186;28;20224;-74
2022/12/19 08:13:33;;;;;;;50.33;25.30;;;;;;;0.15;100.00;101264.38;5065000;28;20274;-74
2022/12/19 08:16:00;;;;;;;55.10;27.63;;;;;;;0.17;100.00;101271.47;5063402;28;20197;-73
2022/12/19 08:18:27;;;;;;;50.10;26.45;;;;;;;0.22;100.00;101271.53;5060517;28;20205;-74
2022/12/19 08:20:55;;;;;;;50.35;27.40;;;;;;;0.27;100.00;101268.91;5061548;28;20349;-75
2022/12/19 08:23:21;;;;;;;55.22;28.10;;;;;;;0.32;100.00;101267.22;5066030;28;20221;-75
2022/12/19 08:25:48;;;;;;;54.80;28.60;;;;;;;0.36;100.00;101266.34;5073911;28;20292;-73
2022/12/19 08:28:15;;;;;;;50.03;27.92;;;;;;;0.38;100.00;101272.56;5072123;28;20297;-73
2022/12/19 08:30:42;;;;;;;52.60;27.13;;;;;;;0.44;100.00;101275.28;5073884;28;20277;-72
2022/12/19 08:33:08;;;;;;;49.58;26.35;;;;;;;0.47;100.00;101263.81;5073269;28;20288;-72
2022/12/19 08:35:36;;;;;;;58.83;29.33;;;;;;;0.51;100.00;101274.47;5062116;28;20208;-74
2022/12/19 08:38:05;;;;;;;50.75;29.25;;;;;;;0.58;100.00;101257.75;5058693;28;20205;-74
2022/12/19 08:40:31;;;;;;;53.25;26.63;;;;;;;0.59;100.00;101262.19;5058007;28;20685;-73
2022/12/19 08:42:58;;;;;;;54.15;29.08;;;;;;;0.57;100.00;101274.53;5057877;28;20221;-74
2022/12/19 08:45:24;;;;;;;55.42;27.10;;;;;;;0.59;100.00;101269.25;5057271;28;20205;-76
2022/12/19 08:47:51;;;;;;;53.70;27.17;;;;;;;0.57;100.00;101258.63;5058069;28;20216;-74
2022/12/19 08:50:18;;;;;;;52.92;25.90;;;;;;;0.51;100.00;101263.88;5057458;28;20265;-72
2022/12/19 08:52:44;;;;;;;85.35;41.28;;;;;;;0.52;100.00;101249.75;5057547;28;20264;-73
2022/12/19 08:55:12;;;;;;;55.38;28.70;;;;;;;0.56;100.00;101246.22;5058285;28;20659;-74
2022/12/19 08:57:39;;;;;;;51.67;26.98;;;;;;;0.59;100.00;101254.22;5057599;28;20296;-74
2022/12/19 09:00:07;;;;;;;51.25;26.13;;;;;;;0.62;100.00;101256.03;5057710;28;20209;-74
2022/12/19 09:02:33;;;;;;;57.20;28.65;;;;;;;0.66;100.00;101251.66;5057808;28;20233;-73
2022/12/19 09:05:00;;;;;;;53.08;25.92;;;;;;;0.68;100.00;101247.22;5057661;28;20269;-74
2022/12/19 09:07:27;;;;;;;51.75;26.92;;;;;;;0.70;100.00;101256.06;5056945;28;20265;-74
2022/12/19 09:09:54;;;;;;;42.90;24.23;;;;;;;0.70;100.00;101256.06;5064305;28;20228;-74
2022/12/19 09:12:22;;;;;;;49.65;27.00;;;;;;;0.69;100.00;101262.28;5071638;28;20224;-73
2022/12/19 09:14:50;;;;;;;48.00;26.02;;;;;;;0.69;100.00;101260.50;5071984;28;20216;-73
2022/12/19 09:17:16;;;;;;;53.15;26.65;;;;;;;0.69;100.00;101263.16;5072009;28;20201;-72
2022/12/19 09:19:43;;;;;;;52.53;27.05;;;;;;;0.74;100.00;101261.41;5069770;28;20670;-73
2022/12/19 09:22:10;;;;;;;50.17;26.38;;;;;;;0.73;100.00;101259.66;5070092;28;20198;-75
2022/12/19 09:24:37;;;;;;;48.22;24.92;;;;;;;0.72;100.00;101263.16;5067500;28;20229;-76
2022/12/19 09:27:04;;;;;;;46.38;24.80;;;;;;;0.71;100.00;101266.69;5060501;28;20655;-75
2022/12/19 09:29:32;;;;;;;52.10;27.00;;;;;;;0.70;100.00;101251.69;5039098;28;20245;-74
2022/12/19 09:31:58;;;;;;;48.45;25.65;;;;;;;0.73;100.00;101266.72;5058258;28;20902;-74
2022/12/19 09:34:26;;;;;;;54.78;26.23;;;;;;;0.76;100.00;101256.13;5066657;28;20254;-74
2022/12/19 09:36:52;;;;;;;52.15;27.52;;;;;;;0.83;100.00;101263.25;5067827;28;20400;-74
2022/12/19 09:39:19;;;;;;;53.45;27.25;;;;;;;0.91;100.00;101258.03;5067227;28;20264;-75
2022/12/19 09:42:02;;;;;;;52.67;28.45;;;;;;;0.94;100.00;101258.94;5049856;28;20214;-72
2022/12/19 09:44:48;;;;;;;52.15;28.67;;;;;;;0.91;100.00;101258.03;5065509;28;20222;-74
2022/12/19 09:47:18;;;;;;;54.90;28.60;;;;;;;0.91;100.00;101255.38;5065343;28;20201;-73
2022/12/19 09:49:47;;;;;;;47.60;25.20;;;;;;;0.90;100.00;101250.94;5066008;28;20221;-73
2022/12/19 09:52:17;;;;;;;45.42;25.85;;;;;;;0.92;100.00;101258.03;5064261;28;20217;-74
2022/12/19 09:54:48;;;;;;;64.15;31.63;;;;;;;0.93;100.00;101251.00;5060954;28;20351;-74
2022/12/19 09:57:23;;;;;;;52.47;28.40;;;;;;;0.93;100.00;101261.59;5059391;28;20258;-76
2022/12/19 09:59:54;;;;;;;59.70;29.38;;;;;;;0.93;100.00;101256.28;5058530;28;20235;-75
2022/12/19 10:02:31;;;;;;;51.78;27.00;;;;;;;0.92;100.00;101254.50;5059710;28;20236;-74
2022/12/19 10:05:04;;;;;;;45.25;25.25;;;;;;;0.94;100.00;101252.75;5068200;28;20209;-75
2022/12/19 10:07:31;;;;;;;50.75;25.90;;;;;;;0.96;100.00;101246.56;5057238;28;20193;-76
2022/12/19 10:09:58;;;;;;;49.17;27.10;;;;;;;1.00;100.00;101232.47;5057047;28;20624;-75
2022/12/19 10:12:42;;;;;;;63.80;33.45;;;;;;;0.98;100.00;101244.81;5057987;28;20228;-72
2022/12/19 10:15:17;;;;;;;56.90;29.65;;;;;;;0.99;100.00;101246.59;5056821;28;20190;-74
2022/12/19 10:18:04;;;;;;;49.65;26.33;;;;;;;1.02;100.00;101232.47;5056326;28;20205;-74
2022/12/19 10:20:37;;;;;;;50.45;25.45;;;;;;;1.11;100.00;101235.19;5056046;28;20182;-74
2022/12/19 10:23:20;;;;;;;53.30;26.75;;;;;;;1.20;100.00;101221.09;5057184;28;20252;-74
2022/12/19 10:25:58;;;;;;;50.58;28.08;;;;;;;1.19;100.00;101228.16;5058406;28;20185;-74
2022/12/19 10:28:48;;;;;;;48.33;26.35;;;;;;;1.18;100.00;101237.00;5060948;28;20209;-72
2022/12/19 10:31:26;;;;;;;49.20;25.85;;;;;;;1.16;100.00;101230.81;5065645;28;20247;-74
2022/12/19 10:33:58;;;;;;;47.97;26.73;;;;;;;1.19;100.00;101227.28;5064910;28;20216;-73
2022/12/19 10:36:25;;;;;;;52.45;29.10;;;;;;;1.18;100.00;101221.09;5065836;28;20205;-73
2022/12/19 10:38:58;;;;;;;52.83;28.38;;;;;;;1.18;100.00;101223.75;5061152;28;20271;-75
2022/12/19 10:41:28;;;;;;;49.60;27.25;;;;;;;1.17;100.00;101218.41;5059099;28;20636;-74
2022/12/19 10:44:01;;;;;;;52.58;27.50;;;;;;;1.17;100.00;101218.41;5057802;28;20649;-73
2022/12/19 10:46:38;;;;;;;54.05;27.00;;;;;;;1.18;100.00;101213.13;5057836;28;20283;-73
2022/12/19 10:49:13;;;;;;;49.38;27.15;;;;;;;1.23;100.00;101237.03;5054897;28;20209;-73
2022/12/19 10:51:41;;;;;;;53.60;27.55;;;;;;;1.26;100.00;101223.78;5053733;28;20201;-74
2022/12/19 10:54:08;;;;;;;49.95;27.40;;;;;;;1.29;100.00;101218.50;5076474;22;20228;-74
2022/12/19 10:56:35;;;;;;;49.17;26.02;;;;;;;1.33;100.00;101220.28;5053705;28;20201;-74
2022/12/19 10:59:02;;;;;;;48.78;27.25;;;;;;;1.40;100.00;101227.41;5053271;28;20204;-74
2022/12/19 11:01:30;;;;;;;53.65;27.40;;;;;;;1.45;100.00;101219.47;5054042;28;20208;-75
2022/12/19 11:06:51;;;;;;;52.55;25.27;;;;;;;1.46;100.00;101197.34;5095316;28;20510;-75
2022/12/19 11:09:26;;;;;;;51.35;27.65;;;;;;;1.50;100.00;101179.66;5097176;28;20232;-74
2022/12/19 11:12:02;;;;;;;51.90;26.23;;;;;;;1.51;100.00;101173.47;5095474;28;20182;-74
2022/12/19 11:14:31;;;;;;;56.60;28.80;;;;;;;1.53;100.00;101179.66;5091896;28;20671;-75
2022/12/19 11:16:57;;;;;;;52.60;27.00;;;;;;;1.58;100.00;101178.81;5097117;28;20305;-73
2022/12/19 11:19:30;;;;;;;44.70;27.15;;;;;;;1.65;100.00;101179.72;5106734;28;20224;-74
2022/12/19 11:22:01;;;;;;;50.67;26.77;;;;;;;1.66;100.00;101171.75;5102494;28;20210;-73